| time (UTC) | temp F | wind direction | speed MPH | gust MPH | rain 1hr in | rain 24hr in | rain mn in | humidity % | barometer mb |
| 20260510201746 | 71 | 131 | 1.0 | 1.0 | 0.00 | 0.00 | 0.00 | 18 | 1025.3 |
| 20260510201242 | 71 | 231 | 4.0 | 5.0 | 0.00 | 0.00 | 0.00 | 18 | 1025.3 |
| 20260510200739 | 68 | 145 | 2.0 | 2.0 | 0.00 | 0.00 | 0.00 | 19 | 1025.1 |
| 20260510200237 | 70 | 132 | 1.0 | 1.0 | 0.00 | 0.00 | 0.00 | 18 | 1025.1 |
| 20260510195733 | 69 | 167 | 3.0 | 3.0 | 0.00 | 0.00 | 0.00 | 18 | 1025.3 |
| 20260510195230 | 69 | 257 | 2.0 | 3.0 | 0.00 | 0.00 | 0.00 | 18 | 1025.5 |
| 20260510194729 | 72 | 199 | 2.0 | 5.0 | 0.00 | 0.00 | 0.00 | 18 | 1025.3 |
| 20260510194226 | 70 | 347 | 2.0 | 2.0 | 0.00 | 0.00 | 0.00 | 19 | 1025.0 |
| 20260510193721 | 72 | 137 | 2.0 | 2.0 | 0.00 | 0.00 | 0.00 | 18 | 1025.3 |
| 20260510193216 | 69 | 245 | 5.0 | 5.0 | 0.00 | 0.00 | 0.00 | 20 | 1025.1 |
| 20260510192712 | 68 | 104 | 2.0 | 5.0 | 0.00 | 0.00 | 0.00 | 21 | 1025.1 |
| 20260510192208 | 69 | 175 | 2.0 | 2.0 | 0.00 | 0.00 | 0.00 | 21 | 1025.4 |
| 20260510191704 | 71 | 185 | 2.0 | 2.0 | 0.00 | 0.00 | 0.00 | 20 | 1025.5 |
| 20260510191201 | 70 | 88 | 1.0 | 2.0 | 0.00 | 0.00 | 0.00 | 20 | 1025.5 |
| 20260510190658 | 70 | 159 | 1.0 | 1.0 | 0.00 | 0.00 | 0.00 | 20 | 1025.8 |
| 20260510190155 | 72 | 183 | 2.0 | 2.0 | 0.00 | 0.00 | 0.00 | 20 | 1025.5 |
| 20260510185652 | 72 | 204 | 2.0 | 3.0 | 0.00 | 0.00 | 0.00 | 19 | 1025.5 |
| 20260510185150 | 71 | 179 | 1.0 | 1.0 | 0.00 | 0.00 | 0.00 | 22 | 1025.4 |
| 20260510184646 | 70 | 156 | 1.0 | 1.0 | 0.00 | 0.00 | 0.00 | 21 | 1025.5 |
| 20260510184142 | 69 | 154 | 0.0 | 1.0 | 0.00 | 0.00 | 0.00 | 23 | 1025.5 |
| 20260510183638 | 70 | 186 | 0.0 | 0.0 | 0.00 | 0.00 | 0.00 | 23 | 1025.5 |
| 20260510183133 | 69 | 157 | 3.0 | 3.0 | 0.00 | 0.00 | 0.00 | 24 | 1025.5 |
| 20260510182630 | 68 | 157 | 3.0 | 3.0 | 0.00 | 0.00 | 0.00 | 23 | 1025.5 |
| 20260510182125 | 68 | 167 | 1.0 | 1.0 | 0.00 | 0.00 | 0.00 | 26 | 1025.8 |
| 20260510181623 | 66 | 163 | 1.0 | 2.0 | 0.00 | 0.00 | 0.00 | 26 | 1025.8 |
| 20260510181119 | 68 | 156 | 3.0 | 5.0 | 0.00 | 0.00 | 0.00 | 24 | 1026.0 |
| 20260510180615 | 68 | 226 | 1.0 | 2.0 | 0.00 | 0.00 | 0.00 | 26 | 1025.9 |
| 20260510180113 | 68 | 178 | 2.0 | 2.0 | 0.00 | 0.00 | 0.00 | 26 | 1025.9 |
| 20260510175609 | 69 | 149 | 1.0 | 1.0 | 0.00 | 0.00 | 0.00 | 25 | 1026.2 |
| 20260510175105 | 67 | 148 | 0.0 | 0.0 | 0.00 | 0.00 | 0.00 | 28 | 1026.0 |
| 20260510174603 | 68 | 150 | 1.0 | 3.0 | 0.00 | 0.00 | 0.00 | 28 | 1025.9 |
| 20260510174059 | 66 | 166 | 3.0 | 3.0 | 0.00 | 0.00 | 0.00 | 29 | 1025.8 |
| 20260510173555 | 67 | 157 | 2.0 | 2.0 | 0.00 | 0.00 | 0.00 | 28 | 1025.8 |
| 20260510173052 | 66 | 183 | 3.0 | 3.0 | 0.00 | 0.00 | 0.00 | 29 | 1026.3 |
| 20260510172548 | 66 | 160 | 3.0 | 5.0 | 0.00 | 0.00 | 0.00 | 30 | 1026.0 |
| 20260510172044 | 67 | 148 | 3.0 | 3.0 | 0.00 | 0.00 | 0.00 | 30 | 1026.0 |
| 20260510171541 | 65 | 176 | 1.0 | 1.0 | 0.00 | 0.00 | 0.00 | 32 | 1026.2 |
| 20260510171038 | 64 | 125 | 0.0 | 0.0 | 0.00 | 0.00 | 0.00 | 33 | 1026.2 |
| 20260510170534 | 64 | 180 | 1.0 | 1.0 | 0.00 | 0.00 | 0.00 | 33 | 1026.3 |
| 20260510170031 | 64 | 158 | 1.0 | 1.0 | 0.00 | 0.00 | 0.00 | 34 | 1025.9 |
| 20260510165527 | 64 | 280 | 1.0 | 2.0 | 0.00 | 0.00 | 0.00 | 35 | 1026.3 |
| 20260510165023 | 63 | 174 | 1.0 | 2.0 | 0.00 | 0.00 | 0.00 | 35 | 1026.2 |
| 20260510164520 | 64 | 291 | 1.0 | 1.0 | 0.00 | 0.00 | 0.00 | 35 | 1026.2 |
| 20260510164017 | 63 | 159 | 3.0 | 5.0 | 0.00 | 0.00 | 0.00 | 36 | 1026.0 |
| 20260510163512 | 63 | 210 | 3.0 | 3.0 | 0.00 | 0.00 | 0.00 | 36 | 1026.2 |
| 20260510163008 | 63 | 222 | 1.0 | 1.0 | 0.00 | 0.00 | 0.00 | 37 | 1026.0 |
| 20260510162504 | 63 | 259 | 5.0 | 7.0 | 0.00 | 0.00 | 0.00 | 36 | 1026.2 |
| 20260510162001 | 63 | 129 | 0.0 | 1.0 | 0.00 | 0.00 | 0.00 | 36 | 1026.0 |
| 20260510161457 | 62 | 214 | 4.0 | 5.0 | 0.00 | 0.00 | 0.00 | 37 | 1025.8 |
| 20260510160954 | 62 | 127 | 1.0 | 2.0 | 0.00 | 0.00 | 0.00 | 37 | 1026.0 |
| 20260510160451 | 61 | 157 | 1.0 | 1.0 | 0.00 | 0.00 | 0.00 | 39 | 1025.8 |
| 20260510155949 | 60 | 154 | 0.0 | 1.0 | 0.00 | 0.00 | 0.00 | 40 | 1025.9 |
| 20260510155446 | 60 | 246 | 5.0 | 7.0 | 0.00 | 0.00 | 0.00 | 40 | 1025.9 |
| 20260510154942 | 60 | 137 | 3.0 | 3.0 | 0.00 | 0.00 | 0.00 | 40 | 1025.9 |
| 20260510154433 | 59 | 149 | 0.0 | 1.0 | 0.00 | 0.00 | 0.00 | 41 | 1026.0 |
| 20260510153931 | 58 | 237 | 1.0 | 1.0 | 0.00 | 0.00 | 0.00 | 42 | 1025.9 |
| 20260510153429 | 58 | 247 | 4.0 | 5.0 | 0.00 | 0.00 | 0.00 | 43 | 1025.9 |
| 20260510152925 | 59 | 197 | 2.0 | 2.0 | 0.00 | 0.00 | 0.00 | 43 | 1025.8 |
| 20260510152423 | 59 | 264 | 1.0 | 2.0 | 0.00 | 0.00 | 0.00 | 42 | 1026.0 |
| 20260510151919 | 58 | 139 | 1.0 | 2.0 | 0.00 | 0.00 | 0.00 | 44 | 1025.6 |
| 20260510151417 | 58 | 146 | 0.0 | 0.0 | 0.00 | 0.00 | 0.00 | 45 | 1025.9 |
| 20260510150912 | 57 | 162 | 0.0 | 1.0 | 0.00 | 0.00 | 0.00 | 46 | 1025.8 |
| 20260510150408 | 57 | 186 | 1.0 | 2.0 | 0.00 | 0.00 | 0.00 | 46 | 1025.5 |
| 20260510145904 | 56 | 158 | 0.0 | 0.0 | 0.00 | 0.00 | 0.00 | 46 | 1025.5 |
| 20260510145401 | 56 | 147 | 0.0 | 1.0 | 0.00 | 0.00 | 0.00 | 47 | 1025.6 |
| 20260510144857 | 55 | 142 | 0.0 | 0.0 | 0.00 | 0.00 | 0.00 | 48 | 1025.8 |
| 20260510144354 | 54 | 143 | 1.0 | 2.0 | 0.00 | 0.00 | 0.00 | 49 | 1026.0 |
| 20260510143849 | 54 | 171 | 1.0 | 1.0 | 0.00 | 0.00 | 0.00 | 49 | 1025.8 |
| 20260510143345 | 53 | 125 | 0.0 | 0.0 | 0.00 | 0.00 | 0.00 | 51 | 1025.8 |
| 20260510142843 | 53 | 142 | 1.0 | 1.0 | 0.00 | 0.00 | 0.00 | 52 | 1025.5 |
| 20260510142339 | 53 | 138 | 2.0 | 2.0 | 0.00 | 0.00 | 0.00 | 51 | 1025.6 |
| 20260510141836 | 53 | 144 | 1.0 | 2.0 | 0.00 | 0.00 | 0.00 | 50 | 1025.5 |
| 20260510141333 | 54 | 145 | 1.0 | 1.0 | 0.00 | 0.00 | 0.00 | 48 | 1025.4 |
| 20260510140830 | 53 | 139 | 0.0 | 0.0 | 0.00 | 0.00 | 0.00 | 46 | 1025.5 |
| 20260510140326 | 52 | 150 | 1.0 | 1.0 | 0.00 | 0.00 | 0.00 | 48 | 1025.5 |
| 20260510135819 | 51 | 152 | 2.0 | 2.0 | 0.00 | 0.00 | 0.00 | 49 | 1025.3 |
| 20260510135315 | 51 | 171 | 2.0 | 2.0 | 0.00 | 0.00 | 0.00 | 48 | 1025.4 |
| 20260510134813 | 51 | 162 | 2.0 | 3.0 | 0.00 | 0.00 | 0.00 | 46 | 1025.0 |
| 20260510134310 | 51 | 172 | 1.0 | 2.0 | 0.00 | 0.00 | 0.00 | 45 | 1025.0 |
| 20260510133806 | 50 | 162 | 1.0 | 1.0 | 0.00 | 0.00 | 0.00 | 46 | 1024.9 |
| 20260510133302 | 48 | 160 | 1.0 | 1.0 | 0.00 | 0.00 | 0.00 | 47 | 1024.6 |
| 20260510132757 | 47 | 191 | 0.0 | 0.0 | 0.00 | 0.00 | 0.00 | 49 | 1024.4 |
| 20260510132256 | 44 | 198 | 0.0 | 0.0 | 0.00 | 0.00 | 0.00 | 52 | 1024.3 |
| 20260510131752 | 42 | 198 | 0.0 | 0.0 | 0.00 | 0.00 | 0.00 | 54 | 1024.3 |
| 20260510131251 | 40 | 237 | 0.0 | 0.0 | 0.00 | 0.00 | 0.00 | 57 | 1023.9 |
| 20260510130746 | 40 | 237 | 0.0 | 1.0 | 0.00 | 0.00 | 0.00 | 58 | 1024.1 |
| 20260510130244 | 39 | 237 | 0.0 | 0.0 | 0.00 | 0.00 | 0.00 | 58 | 1024.0 |
| 20260510125740 | 40 | 237 | 0.0 | 0.0 | 0.00 | 0.00 | 0.00 | 57 | 1023.9 |
| 20260510125236 | 40 | 236 | 0.0 | 0.0 | 0.00 | 0.00 | 0.00 | 58 | 1023.9 |
| 20260510124733 | 40 | 236 | 0.0 | 0.0 | 0.00 | 0.00 | 0.00 | 56 | 1023.7 |
| 20260510124231 | 39 | 236 | 0.0 | 0.0 | 0.00 | 0.00 | 0.00 | 57 | 1023.7 |
| 20260510123725 | 40 | 236 | 0.0 | 0.0 | 0.00 | 0.00 | 0.00 | 57 | 1023.9 |
| 20260510123222 | 40 | 236 | 0.0 | 1.0 | 0.00 | 0.00 | 0.00 | 56 | 1023.5 |
| 20260510122718 | 40 | 236 | 0.0 | 0.0 | 0.00 | 0.00 | 0.00 | 56 | 1023.5 |
| 20260510122215 | 40 | 236 | 0.0 | 0.0 | 0.00 | 0.00 | 0.00 | 56 | 1023.7 |
| 20260510121711 | 40 | 236 | 0.0 | 1.0 | 0.00 | 0.00 | 0.00 | 55 | 1024.0 |
| 20260510121209 | 40 | 236 | 1.0 | 1.0 | 0.00 | 0.00 | 0.00 | 55 | 1023.9 |
| 20260510120705 | 41 | 236 | 0.0 | 1.0 | 0.00 | 0.00 | 0.00 | 55 | 1024.0 |
| 20260510120202 | 42 | 236 | 0.0 | 0.0 | 0.00 | 0.00 | 0.00 | 53 | 1023.6 |
| 20260510115658 | 42 | 236 | 0.0 | 0.0 | 0.00 | 0.00 | 0.00 | 52 | 1023.7 |
| 20260510115156 | 43 | 236 | 0.0 | 0.0 | 0.00 | 0.00 | 0.00 | 51 | 1023.7 |
| 20260510114651 | 43 | 236 | 0.0 | 1.0 | 0.00 | 0.00 | 0.00 | 51 | 1023.9 |
| 20260510114148 | 43 | 236 | 1.0 | 2.0 | 0.00 | 0.00 | 0.00 | 51 | 1023.6 |
| 20260510113643 | 43 | 236 | 0.0 | 0.0 | 0.00 | 0.00 | 0.00 | 51 | 1023.6 |
| 20260510113140 | 43 | 237 | 0.0 | 0.0 | 0.00 | 0.00 | 0.00 | 50 | 1023.7 |
| 20260510112637 | 43 | 274 | 0.0 | 0.0 | 0.00 | 0.00 | 0.00 | 51 | 1023.4 |
| 20260510112134 | 43 | 274 | 0.0 | 0.0 | 0.00 | 0.00 | 0.00 | 51 | 1023.0 |
| 20260510111630 | 44 | 274 | 0.0 | 0.0 | 0.00 | 0.00 | 0.00 | 50 | 1023.1 |
| 20260510111126 | 44 | 274 | 0.0 | 0.0 | 0.00 | 0.00 | 0.00 | 49 | 1023.1 |
| 20260510110622 | 44 | 274 | 0.0 | 0.0 | 0.00 | 0.00 | 0.00 | 49 | 1023.0 |
| 20260510110119 | 44 | 274 | 0.0 | 0.0 | 0.00 | 0.00 | 0.00 | 48 | 1023.2 |
| 20260510105615 | 45 | 274 | 1.0 | 1.0 | 0.00 | 0.00 | 0.00 | 48 | 1023.0 |
| 20260510105109 | 45 | 274 | 0.0 | 1.0 | 0.00 | 0.00 | 0.00 | 48 | 1023.0 |
| 20260510104606 | 45 | 274 | 0.0 | 1.0 | 0.00 | 0.00 | 0.00 | 47 | 1023.0 |
| 20260510104103 | 46 | 274 | 0.0 | 0.0 | 0.00 | 0.00 | 0.00 | 47 | 1023.0 |
| 20260510103600 | 46 | 274 | 0.0 | 1.0 | 0.00 | 0.00 | 0.00 | 46 | 1022.9 |
| 20260510103056 | 46 | 274 | 0.0 | 0.0 | 0.00 | 0.00 | 0.00 | 46 | 1023.0 |
| 20260510102551 | 46 | 274 | 0.0 | 0.0 | 0.00 | 0.00 | 0.00 | 46 | 1022.7 |
| 20260510102047 | 46 | 274 | 0.0 | 0.0 | 0.00 | 0.00 | 0.00 | 45 | 1022.7 |
| 20260510101545 | 46 | 274 | 0.0 | 0.0 | 0.00 | 0.00 | 0.00 | 45 | 1022.9 |
| 20260510101044 | 46 | 274 | 0.0 | 0.0 | 0.00 | 0.00 | 0.00 | 46 | 1022.5 |
| 20260510100539 | 47 | 274 | 0.0 | 0.0 | 0.00 | 0.00 | 0.00 | 44 | 1022.6 |
| 20260510100037 | 48 | 274 | 0.0 | 0.0 | 0.00 | 0.00 | 0.00 | 43 | 1022.2 |
| 20260510095533 | 50 | 274 | 0.0 | 0.0 | 0.00 | 0.00 | 0.00 | 42 | 1022.0 |
| 20260510095032 | 50 | 274 | 0.0 | 0.0 | 0.00 | 0.00 | 0.00 | 41 | 1022.1 |
| 20260510094527 | 50 | 274 | 0.0 | 0.0 | 0.00 | 0.00 | 0.00 | 41 | 1021.9 |
| 20260510094023 | 49 | 274 | 0.0 | 0.0 | 0.00 | 0.00 | 0.00 | 42 | 1022.0 |
| 20260510093518 | 49 | 274 | 0.0 | 0.0 | 0.00 | 0.00 | 0.00 | 42 | 1022.0 |
| 20260510093015 | 49 | 274 | 0.0 | 0.0 | 0.00 | 0.00 | 0.00 | 42 | 1021.7 |
| 20260510092513 | 50 | 274 | 0.0 | 0.0 | 0.00 | 0.00 | 0.00 | 41 | 1022.0 |
| 20260510092012 | 50 | 274 | 0.0 | 0.0 | 0.00 | 0.00 | 0.00 | 41 | 1021.9 |
| 20260510091509 | 51 | 274 | 0.0 | 0.0 | 0.00 | 0.00 | 0.00 | 40 | 1021.7 |
| 20260510091005 | 52 | 274 | 0.0 | 0.0 | 0.00 | 0.00 | 0.00 | 39 | 1021.5 |
| 20260510090503 | 53 | 274 | 0.0 | 0.0 | 0.00 | 0.00 | 0.00 | 37 | 1021.5 |
| 20260510085957 | 54 | 274 | 0.0 | 0.0 | 0.00 | 0.00 | 0.00 | 36 | 1021.6 |
| 20260510085453 | 55 | 274 | 2.0 | 2.0 | 0.00 | 0.00 | 0.00 | 36 | 1021.3 |
| 20260510084949 | 55 | 275 | 0.0 | 0.0 | 0.00 | 0.00 | 0.00 | 35 | 1021.3 |
| 20260510084446 | 56 | 294 | 0.0 | 0.0 | 0.00 | 0.00 | 0.00 | 35 | 1021.2 |
| 20260510083942 | 56 | 294 | 1.0 | 2.0 | 0.00 | 0.00 | 0.00 | 35 | 1021.1 |
| 20260510083439 | 57 | 61 | 8.0 | 11.0 | 0.00 | 0.00 | 0.00 | 34 | 1021.2 |
| 20260510082934 | 55 | 131 | 0.0 | 0.0 | 0.00 | 0.00 | 0.00 | 35 | 1021.0 |
| 20260510082433 | 50 | 99 | 2.0 | 3.0 | 0.00 | 0.00 | 0.00 | 38 | 1021.0 |
| 20260510081931 | 50 | 139 | 0.0 | 0.0 | 0.00 | 0.00 | 0.00 | 38 | 1021.2 |
| 20260510081427 | 51 | 145 | 0.0 | 0.0 | 0.00 | 0.00 | 0.00 | 36 | 1020.8 |
| 20260510080924 | 50 | 155 | 0.0 | 0.0 | 0.00 | 0.00 | 0.00 | 37 | 1020.7 |
| 20260510080423 | 50 | 137 | 0.0 | 0.0 | 0.00 | 0.00 | 0.00 | 38 | 1020.7 |
| 20260510075920 | 50 | 126 | 0.0 | 1.0 | 0.00 | 0.00 | 0.00 | 38 | 1021.1 |
| 20260510075418 | 50 | 127 | 0.0 | 0.0 | 0.00 | 0.00 | 0.00 | 39 | 1020.8 |
| 20260510074914 | 50 | 136 | 0.0 | 0.0 | 0.00 | 0.00 | 0.00 | 39 | 1021.0 |
| 20260510074411 | 51 | 130 | 0.0 | 0.0 | 0.00 | 0.00 | 0.00 | 39 | 1021.1 |
| 20260510073908 | 51 | 130 | 0.0 | 0.0 | 0.00 | 0.00 | 0.00 | 39 | 1021.2 |
| 20260510073403 | 52 | 122 | 0.0 | 0.0 | 0.00 | 0.00 | 0.00 | 39 | 1021.2 |
| 20260510072900 | 52 | 131 | 0.0 | 0.0 | 0.00 | 0.00 | 0.00 | 39 | 1021.2 |
| 20260510072357 | 53 | 140 | 0.0 | 0.0 | 0.00 | 0.00 | 0.00 | 38 | 1021.5 |
| 20260510071852 | 53 | 137 | 0.0 | 0.0 | 0.00 | 0.00 | 0.00 | 37 | 1021.6 |
| 20260510071349 | 53 | 132 | 0.0 | 0.0 | 0.00 | 0.00 | 0.00 | 37 | 1021.7 |
| 20260510070848 | 53 | 139 | 0.0 | 0.0 | 0.00 | 0.00 | 0.00 | 36 | 1021.9 |
| 20260510070344 | 53 | 135 | 0.0 | 0.0 | 0.00 | 0.00 | 0.00 | 37 | 1021.7 |
| 20260510065844 | 53 | 125 | 0.0 | 0.0 | 0.00 | 0.00 | 0.00 | 37 | 1021.9 |
| 20260510065341 | 54 | 127 | 0.0 | 0.0 | 0.00 | 0.00 | 0.00 | 37 | 1022.2 |
| 20260510064838 | 54 | 129 | 0.0 | 0.0 | 0.00 | 0.00 | 0.00 | 36 | 1022.2 |
| 20260510064336 | 54 | 145 | 0.0 | 0.0 | 0.00 | 0.00 | 0.00 | 35 | 1022.0 |
| 20260510063832 | 54 | 138 | 0.0 | 0.0 | 0.00 | 0.00 | 0.00 | 36 | 1022.0 |
| 20260510063329 | 54 | 139 | 0.0 | 0.0 | 0.00 | 0.00 | 0.00 | 36 | 1021.6 |
| 20260510062825 | 55 | 140 | 0.0 | 0.0 | 0.00 | 0.00 | 0.00 | 36 | 1021.6 |
| 20260510062321 | 55 | 141 | 0.0 | 0.0 | 0.00 | 0.00 | 0.00 | 35 | 1021.9 |
| 20260510061816 | 56 | 137 | 0.0 | 0.0 | 0.00 | 0.00 | 0.00 | 35 | 1021.9 |
| 20260510061313 | 56 | 144 | 0.0 | 0.0 | 0.00 | 0.00 | 0.00 | 35 | 1021.6 |
| 20260510060809 | 56 | 151 | 0.0 | 0.0 | 0.00 | 0.00 | 0.00 | 35 | 1021.6 |
| 20260510060307 | 57 | 140 | 0.0 | 0.0 | 0.00 | 0.00 | 0.00 | 34 | 1021.6 |
| 20260510055803 | 57 | 148 | 0.0 | 0.0 | 0.00 | 0.00 | 0.00 | 34 | 1021.5 |
| 20260510055306 | 57 | 148 | 0.0 | 0.0 | 0.00 | 0.00 | 0.00 | 34 | 1021.2 |
| 20260510054801 | 57 | 145 | 1.0 | 2.0 | 0.00 | 0.00 | 0.00 | 34 | 1021.2 |
| 20260510054257 | 57 | 143 | 2.0 | 3.0 | 0.00 | 0.00 | 0.00 | 34 | 1021.3 |
| 20260510053752 | 57 | 139 | 0.0 | 1.0 | 0.00 | 0.00 | 0.00 | 34 | 1021.3 |
| 20260510053248 | 57 | 169 | 2.0 | 2.0 | 0.00 | 0.00 | 0.00 | 34 | 1021.6 |
| 20260510052744 | 57 | 106 | 4.0 | 7.0 | 0.00 | 0.00 | 0.00 | 33 | 1021.6 |
| 20260510052240 | 57 | 147 | 0.0 | 0.0 | 0.00 | 0.00 | 0.00 | 32 | 1021.2 |
| 20260510051736 | 58 | 144 | 0.0 | 0.0 | 0.00 | 0.00 | 0.00 | 31 | 1021.0 |
| 20260510051233 | 59 | 149 | 0.0 | 0.0 | 0.00 | 0.00 | 0.00 | 29 | 1021.1 |
| 20260510050730 | 60 | 144 | 0.0 | 0.0 | 0.00 | 0.00 | 0.00 | 29 | 1020.8 |
| 20260510050227 | 60 | 126 | 0.0 | 1.0 | 0.00 | 0.00 | 0.00 | 28 | 1020.8 |
| 20260510045724 | 60 | 141 | 0.0 | 0.0 | 0.00 | 0.00 | 0.00 | 28 | 1020.8 |
| 20260510045220 | 60 | 66 | 1.0 | 2.0 | 0.00 | 0.00 | 0.00 | 28 | 1021.1 |
| 20260510044717 | 60 | 137 | 0.0 | 1.0 | 0.00 | 0.00 | 0.00 | 28 | 1021.0 |
| 20260510044215 | 60 | 131 | 0.0 | 0.0 | 0.00 | 0.00 | 0.00 | 28 | 1021.0 |
| 20260510043710 | 60 | 142 | 0.0 | 0.0 | 0.00 | 0.00 | 0.00 | 27 | 1021.0 |
| 20260510043207 | 60 | 346 | 1.0 | 2.0 | 0.00 | 0.00 | 0.00 | 27 | 1020.8 |
| 20260510042704 | 61 | 132 | 0.0 | 0.0 | 0.00 | 0.00 | 0.00 | 27 | 1020.8 |
| 20260510042200 | 61 | 139 | 0.0 | 0.0 | 0.00 | 0.00 | 0.00 | 27 | 1021.0 |
| 20260510041657 | 61 | 1 | 0.0 | 0.0 | 0.00 | 0.00 | 0.00 | 27 | 1020.8 |
| 20260510041154 | 60 | 132 | 0.0 | 1.0 | 0.00 | 0.00 | 0.00 | 28 | 1020.8 |
| 20260510040651 | 60 | 141 | 0.0 | 0.0 | 0.00 | 0.00 | 0.00 | 28 | 1021.1 |
| 20260510040148 | 60 | 140 | 0.0 | 0.0 | 0.00 | 0.00 | 0.00 | 29 | 1020.8 |
| 20260510035643 | 60 | 129 | 0.0 | 1.0 | 0.00 | 0.00 | 0.00 | 29 | 1021.1 |
| 20260510035139 | 61 | 153 | 1.0 | 1.0 | 0.00 | 0.00 | 0.00 | 29 | 1021.1 |
| 20260510034636 | 61 | 142 | 0.0 | 1.0 | 0.00 | 0.00 | 0.00 | 29 | 1020.8 |
| 20260510034133 | 60 | 132 | 0.0 | 0.0 | 0.00 | 0.00 | 0.00 | 29 | 1020.8 |
| 20260510033629 | 60 | 88 | 3.0 | 3.0 | 0.00 | 0.00 | 0.00 | 29 | 1020.6 |
| 20260510033127 | 60 | 130 | 1.0 | 1.0 | 0.00 | 0.00 | 0.00 | 29 | 1020.8 |
| 20260510032623 | 61 | 220 | 2.0 | 3.0 | 0.00 | 0.00 | 0.00 | 29 | 1020.7 |
| 20260510032119 | 61 | 144 | 0.0 | 0.0 | 0.00 | 0.00 | 0.00 | 28 | 1020.8 |
| 20260510031614 | 61 | 167 | 0.0 | 0.0 | 0.00 | 0.00 | 0.00 | 28 | 1020.6 |
| 20260510031111 | 62 | 133 | 0.0 | 1.0 | 0.00 | 0.00 | 0.00 | 28 | 1020.7 |
| 20260510030605 | 62 | 132 | 3.0 | 5.0 | 0.00 | 0.00 | 0.00 | 28 | 1020.5 |
| 20260510030103 | 62 | 38 | 2.0 | 2.0 | 0.00 | 0.00 | 0.00 | 28 | 1020.5 |
| 20260510025600 | 62 | 46 | 4.0 | 6.0 | 0.00 | 0.00 | 0.00 | 27 | 1020.3 |
| 20260510025058 | 62 | 135 | 2.0 | 3.0 | 0.00 | 0.00 | 0.00 | 27 | 1020.2 |
| 20260510024554 | 62 | 48 | 4.0 | 5.0 | 0.00 | 0.00 | 0.00 | 27 | 1020.0 |
| 20260510024050 | 62 | 129 | 0.0 | 0.0 | 0.00 | 0.00 | 0.00 | 27 | 1020.1 |
| 20260510023547 | 63 | 121 | 3.0 | 5.0 | 0.00 | 0.00 | 0.00 | 26 | 1019.8 |
| 20260510023044 | 63 | 121 | 1.0 | 1.0 | 0.00 | 0.00 | 0.00 | 26 | 1019.7 |
| 20260510022543 | 63 | 126 | 1.0 | 1.0 | 0.00 | 0.00 | 0.00 | 26 | 1019.8 |
| 20260510022038 | 63 | 136 | 1.0 | 1.0 | 0.00 | 0.00 | 0.00 | 26 | 1019.8 |
| 20260510021535 | 63 | 138 | 0.0 | 0.0 | 0.00 | 0.00 | 0.00 | 26 | 1019.8 |
| 20260510021032 | 63 | 130 | 1.0 | 1.0 | 0.00 | 0.00 | 0.00 | 26 | 1019.6 |
| 20260510020526 | 63 | 53 | 3.0 | 5.0 | 0.00 | 0.00 | 0.00 | 26 | 1019.4 |
| 20260510020022 | 63 | 120 | 1.0 | 3.0 | 0.00 | 0.00 | 0.00 | 26 | 1019.3 |
| 20260510015518 | 64 | 126 | 1.0 | 1.0 | 0.00 | 0.00 | 0.00 | 26 | 1019.6 |
| 20260510015014 | 64 | 152 | 2.0 | 3.0 | 0.00 | 0.00 | 0.00 | 26 | 1019.4 |
| 20260510014511 | 64 | 61 | 2.0 | 3.0 | 0.00 | 0.00 | 0.00 | 26 | 1019.4 |
| 20260510014008 | 64 | 122 | 0.0 | 0.0 | 0.00 | 0.00 | 0.00 | 26 | 1019.1 |
| 20260510013503 | 65 | 67 | 3.0 | 3.0 | 0.00 | 0.00 | 0.00 | 25 | 1019.1 |
| 20260510012959 | 65 | 81 | 1.0 | 3.0 | 0.00 | 0.00 | 0.00 | 25 | 1019.3 |
| 20260510012453 | 65 | 147 | 2.0 | 3.0 | 0.00 | 0.00 | 0.00 | 25 | 1018.7 |
| 20260510011948 | 66 | 227 | 2.0 | 2.0 | 0.00 | 0.00 | 0.00 | 24 | 1018.9 |
| 20260510011443 | 66 | 345 | 3.0 | 5.0 | 0.00 | 0.00 | 0.00 | 24 | 1018.7 |
| 20260510010940 | 66 | 121 | 1.0 | 2.0 | 0.00 | 0.00 | 0.00 | 24 | 1018.8 |
| 20260510010437 | 67 | 128 | 2.0 | 2.0 | 0.00 | 0.00 | 0.00 | 23 | 1018.6 |
| 20260510005934 | 67 | 328 | 3.0 | 5.0 | 0.00 | 0.00 | 0.00 | 22 | 1018.7 |
| 20260510005430 | 67 | 158 | 3.0 | 5.0 | 0.00 | 0.00 | 0.00 | 22 | 1018.7 |
| 20260510004927 | 67 | 129 | 1.0 | 1.0 | 0.00 | 0.00 | 0.00 | 22 | 1018.7 |
| 20260510004424 | 67 | 145 | 1.0 | 1.0 | 0.00 | 0.00 | 0.00 | 22 | 1018.6 |
| 20260510003923 | 67 | 258 | 1.0 | 3.0 | 0.00 | 0.00 | 0.00 | 22 | 1018.6 |
| 20260510003419 | 67 | 88 | 0.0 | 1.0 | 0.00 | 0.00 | 0.00 | 23 | 1018.3 |
| 20260510002919 | 67 | 152 | 2.0 | 5.0 | 0.00 | 0.00 | 0.00 | 23 | 1018.2 |
| 20260510002416 | 68 | 70 | 3.0 | 6.0 | 0.00 | 0.00 | 0.00 | 22 | 1018.6 |
| 20260510001912 | 68 | 324 | 1.0 | 2.0 | 0.00 | 0.00 | 0.00 | 22 | 1018.8 |
| 20260510001410 | 68 | 151 | 0.0 | 1.0 | 0.00 | 0.00 | 0.00 | 21 | 1018.4 |
| 20260510000906 | 68 | 80 | 7.0 | 15.0 | 0.00 | 0.00 | 0.00 | 21 | 1018.6 |
| 20260510000404 | 69 | 321 | 2.0 | 3.0 | 0.00 | 0.00 | 0.00 | 21 | 1018.7 |
| 20260509235859 | 69 | 305 | 3.0 | 5.0 | 0.00 | 0.00 | 0.00 | 21 | 1018.4 |
| 20260509235356 | 69 | 164 | 1.0 | 2.0 | 0.00 | 0.00 | 0.00 | 21 | 1018.3 |
| 20260509234852 | 69 | 201 | 2.0 | 2.0 | 0.00 | 0.00 | 0.00 | 21 | 1018.6 |
| 20260509234350 | 70 | 134 | 1.0 | 1.0 | 0.00 | 0.00 | 0.00 | 20 | 1018.6 |
| 20260509233848 | 70 | 236 | 1.0 | 1.0 | 0.00 | 0.00 | 0.00 | 20 | 1018.3 |
| 20260509233345 | 70 | 98 | 5.0 | 9.0 | 0.00 | 0.00 | 0.00 | 20 | 1018.4 |
| 20260509232840 | 70 | 216 | 2.0 | 2.0 | 0.00 | 0.00 | 0.00 | 20 | 1018.1 |
| 20260509232339 | 70 | 130 | 3.0 | 5.0 | 0.00 | 0.00 | 0.00 | 20 | 1018.2 |
| 20260509231834 | 70 | 255 | 1.0 | 3.0 | 0.00 | 0.00 | 0.00 | 21 | 1018.2 |
| 20260509231332 | 71 | 45 | 4.0 | 5.0 | 0.00 | 0.00 | 0.00 | 20 | 1018.3 |
| 20260509230829 | 72 | 146 | 2.0 | 2.0 | 0.00 | 0.00 | 0.00 | 20 | 1018.2 |
| 20260509230326 | 70 | 159 | 2.0 | 2.0 | 0.00 | 0.00 | 0.00 | 20 | 1017.8 |
| 20260509225821 | 70 | 121 | 2.0 | 2.0 | 0.00 | 0.00 | 0.00 | 20 | 1018.1 |
| 20260509225318 | 69 | 136 | 1.0 | 2.0 | 0.00 | 0.00 | 0.00 | 20 | 1017.8 |
| 20260509224814 | 69 | 144 | 1.0 | 1.0 | 0.00 | 0.00 | 0.00 | 21 | 1018.3 |
| 20260509224311 | 70 | 147 | 0.0 | 0.0 | 0.00 | 0.00 | 0.00 | 21 | 1018.3 |
| 20260509223807 | 70 | 149 | 0.0 | 1.0 | 0.00 | 0.00 | 0.00 | 21 | 1018.1 |
| 20260509223304 | 70 | 151 | 1.0 | 1.0 | 0.00 | 0.00 | 0.00 | 21 | 1018.2 |
| 20260509222801 | 70 | 132 | 0.0 | 1.0 | 0.00 | 0.00 | 0.00 | 21 | 1018.2 |
| 20260509222256 | 72 | 101 | 3.0 | 5.0 | 0.00 | 0.00 | 0.00 | 20 | 1018.3 |
| 20260509221753 | 74 | 347 | 5.0 | 6.0 | 0.00 | 0.00 | 0.00 | 19 | 1018.2 |
| 20260509221249 | 73 | 158 | 0.0 | 1.0 | 0.00 | 0.00 | 0.00 | 19 | 1018.3 |
| 20260509220745 | 73 | 133 | 2.0 | 2.0 | 0.00 | 0.00 | 0.00 | 20 | 1018.4 |
| 20260509220242 | 72 | 89 | 3.0 | 5.0 | 0.00 | 0.00 | 0.00 | 21 | 1018.4 |
| 20260509215737 | 70 | 148 | 3.0 | 6.0 | 0.00 | 0.00 | 0.00 | 21 | 1018.7 |
| 20260509215234 | 69 | 128 | 1.0 | 1.0 | 0.00 | 0.00 | 0.00 | 21 | 1018.9 |
| 20260509214731 | 68 | 309 | 3.0 | 5.0 | 0.00 | 0.00 | 0.00 | 22 | 1019.2 |
| 20260509214228 | 68 | 133 | 3.0 | 5.0 | 0.00 | 0.00 | 0.00 | 21 | 1018.7 |
| 20260509213725 | 68 | 107 | 2.0 | 2.0 | 0.00 | 0.00 | 0.00 | 21 | 1018.3 |
| 20260509213220 | 69 | 115 | 1.0 | 1.0 | 0.00 | 0.00 | 0.00 | 21 | 1018.8 |
| 20260509212718 | 69 | 109 | 1.0 | 1.0 | 0.00 | 0.00 | 0.00 | 20 | 1018.3 |
| 20260509212215 | 70 | 7 | 3.0 | 6.0 | 0.00 | 0.00 | 0.00 | 19 | 1018.7 |
| 20260509211711 | 70 | 129 | 1.0 | 1.0 | 0.00 | 0.00 | 0.00 | 20 | 1018.7 |
| 20260509211208 | 70 | 137 | 2.0 | 3.0 | 0.00 | 0.00 | 0.00 | 19 | 1018.6 |
| 20260509210704 | 71 | 331 | 4.0 | 6.0 | 0.00 | 0.00 | 0.00 | 19 | 1018.9 |
| 20260509210202 | 71 | 131 | 2.0 | 3.0 | 0.00 | 0.00 | 0.00 | 18 | 1018.6 |
| 20260509205702 | 71 | 78 | 4.0 | 6.0 | 0.00 | 0.00 | 0.00 | 18 | 1018.9 |
| 20260509205201 | 72 | 232 | 5.0 | 7.0 | 0.00 | 0.00 | 0.00 | 16 | 1018.8 |
| 20260509204657 | 73 | 151 | 3.0 | 7.0 | 0.00 | 0.00 | 0.00 | 16 | 1019.1 |
| 20260509204154 | 73 | 151 | 0.0 | 0.0 | 0.00 | 0.00 | 0.00 | 17 | 1019.1 |
| 20260509203650 | 72 | 234 | 5.0 | 7.0 | 0.00 | 0.00 | 0.00 | 16 | 1019.4 |
| 20260509203148 | 73 | 212 | 5.0 | 7.0 | 0.00 | 0.00 | 0.00 | 16 | 1018.9 |
| 20260509202643 | 73 | 243 | 4.0 | 6.0 | 0.00 | 0.00 | 0.00 | 15 | 1019.2 |
| 20260509202138 | 74 | 176 | 0.0 | 1.0 | 0.00 | 0.00 | 0.00 | 14 | 1018.9 |